11. August 2022

Uhrzeit Code Wetter Temp. Sichtweite Wolkendecke Wind METAR/SPECI
19:00
V
33 °C 10 km+ - 300° 300° 10 kt METAR LFHP 111700Z AUTO 30010KT 260V340 CAVOK 33/03 Q1016
18:30
V
33 °C 10 km+ - 320° 320° 6 kt METAR LFHP 111630Z AUTO 32006KT 280V030 CAVOK 33/02 Q1016
18:00
V
33 °C 10 km+ - 320° 320° 7 kt METAR LFHP 111600Z AUTO 32007KT 220V010 CAVOK 33/03 Q1016
17:30
V
33 °C 10 km+ - 010° 010° 7 kt METAR LFHP 111530Z AUTO 01007KT 330V040 CAVOK 33/02 Q1017
17:00
V
33 °C 10 km+ - 340° 340° 8 kt METAR LFHP 111500Z AUTO 34008KT 280V030 CAVOK 33/03 Q1017
16:30
V
33 °C 10 km+ - Var Var 7 kt METAR LFHP 111430Z AUTO VRB07KT CAVOK 33/02 Q1017
16:00
V
33 °C 10 km+ - Var Var 7 kt METAR LFHP 111400Z AUTO VRB07KT CAVOK 33/02 Q1017
15:30
V
32 °C 10 km+ - 300° 300° 8 kt METAR LFHP 111330Z AUTO 30008KT 250V010 CAVOK 32/00 Q1018
15:00
V
33 °C 10 km+ - 310° 310° 7 - 26 kt METAR LFHP 111300Z AUTO 31007G26KT 230V350 CAVOK 33/03 Q1018
14:30
V
32 °C 10 km+ - 330° 330° 8 kt METAR LFHP 111230Z AUTO 33008KT 290V010 CAVOK 32/04 Q1018
14:00
V
32 °C 10 km+ - 210° 210° 7 kt METAR LFHP 111200Z AUTO 21007KT 150V270 CAVOK 32/04 Q1018
13:30
V
32 °C 10 km+ - Var Var 7 kt METAR LFHP 111130Z AUTO VRB07KT CAVOK 32/05 Q1018
13:00
V
31 °C 10 km+ - Var Var 6 kt METAR LFHP 111100Z AUTO VRB06KT CAVOK 31/04 Q1019
12:30
V
30 °C 10 km+ - 260° 260° 7 kt METAR LFHP 111030Z AUTO 26007KT 200V320 CAVOK 30/04 Q1019
12:00
V
30 °C 10 km+ - Var Var 5 kt METAR LFHP 111000Z AUTO VRB05KT CAVOK 30/05 Q1019
11:30
V
30 °C 10 km+ - 050° 050° 6 kt METAR LFHP 110930Z AUTO 05006KT 340V100 CAVOK 30/07 Q1019
11:00
V
28 °C 10 km+ - 090° 090° 6 kt METAR LFHP 110900Z AUTO 09006KT CAVOK 28/08 Q1019
10:30
V
26 °C 10 km+ - 090° 090° 5 kt METAR LFHP 110830Z AUTO 09005KT 060V130 CAVOK 26/07 Q1019
10:00
V
25 °C 10 km+ - 080° 080° 3 kt METAR LFHP 110800Z AUTO 08003KT 040V140 CAVOK 25/08 Q1020
09:30
V
23 °C 10 km+ - Var Var 2 kt METAR LFHP 110730Z AUTO VRB02KT CAVOK 23/08 Q1020
09:00
V
20 °C 10 km+ - Var Var 2 kt METAR LFHP 110700Z AUTO VRB02KT CAVOK 20/08 Q1020

10. August 2022

Uhrzeit Code Wetter Temp. Sichtweite Wolkendecke Wind METAR/SPECI
21:00
V
26 °C 10 km+ - 050° 050° 4 kt METAR LFHP 101900Z AUTO 05004KT CAVOK 26/06 Q1019
20:30
V
27 °C 10 km+ - 060° 060° 6 kt METAR LFHP 101830Z AUTO 06006KT CAVOK 27/06 Q1019
20:00
V
28 °C 10 km+ - 060° 060° 9 kt METAR LFHP 101800Z AUTO 06009KT CAVOK 28/06 Q1019
19:30
V
29 °C 10 km+ - 100° 100° 6 kt METAR LFHP 101730Z AUTO 10006KT 070V130 CAVOK 29/07 Q1019
19:00
V
30 °C 10 km+ - 100° 100° 5 kt METAR LFHP 101700Z AUTO 10005KT 060V130 CAVOK 30/07 Q1019
18:30
V
30 °C 10 km+ - 120° 120° 7 kt METAR LFHP 101630Z AUTO 12007KT 100V160 CAVOK 30/07 Q1019
18:00
V
30 °C 10 km+ - 090° 090° 5 kt METAR LFHP 101600Z AUTO 09005KT 050V150 CAVOK 30/05 Q1019
17:30
V
31 °C 10 km+ - 050° 050° 8 kt METAR LFHP 101530Z AUTO 05008KT 010V090 CAVOK 31/05 Q1019
17:00
V
32 °C 10 km+ - 080° 080° 3 kt METAR LFHP 101500Z AUTO 08003KT 020V170 CAVOK 32/05 Q1019
16:30
V
31 °C 10 km+ - 330° 330° 7 kt METAR LFHP 101430Z AUTO 33007KT 290V360 CAVOK 31/05 Q1019
16:00
V
31 °C 10 km+ - 030° 030° 6 kt METAR LFHP 101400Z AUTO 03006KT 350V080 CAVOK 31/05 Q1019
15:30
V
31 °C 10 km+ - 050° 050° 7 kt METAR LFHP 101330Z AUTO 05007KT 350V140 CAVOK 31/06 Q1020
15:00
V
30 °C 10 km+ - Var Var 5 kt METAR LFHP 101300Z AUTO VRB05KT CAVOK 30/06 Q1020
14:30
V
30 °C 10 km+ - 020° 020° 5 kt METAR LFHP 101230Z AUTO 02005KT 310V090 CAVOK 30/06 Q1020
14:00
V
29 °C 10 km+ - Var Var 6 kt METAR LFHP 101200Z AUTO VRB06KT CAVOK 29/06 Q1021
13:30
V
29 °C 10 km+ - Var Var 4 kt METAR LFHP 101130Z AUTO VRB04KT CAVOK 29/06 Q1021
13:00
V
29 °C 10 km+ - Var Var 4 kt METAR LFHP 101100Z AUTO VRB04KT CAVOK 29/07 Q1021
12:30
V
28 °C 10 km+ - 120° 120° 4 kt METAR LFHP 101030Z AUTO 12004KT 040V160 CAVOK 28/07 Q1021
12:00
V
27 °C 10 km+ - Var Var 3 kt METAR LFHP 101000Z AUTO VRB03KT CAVOK 27/08 Q1022
11:30
V
26 °C 10 km+ - 120° 120° 3 kt METAR LFHP 100930Z AUTO 12003KT 030V200 CAVOK 26/07 Q1022
11:00
V
24 °C 10 km+ - 100° 100° 5 kt METAR LFHP 100900Z AUTO 10005KT 040V140 CAVOK 24/07 Q1022
10:30
V
24 °C 10 km+ - Var Var 3 kt METAR LFHP 100830Z AUTO VRB03KT CAVOK 24/07 Q1022
10:00
V
22 °C 10 km+ - Var Var 2 kt METAR LFHP 100800Z AUTO VRB02KT CAVOK 22/07 Q1022
09:30
V
20 °C 10 km+ - Var Var 2 kt METAR LFHP 100730Z AUTO VRB02KT CAVOK 20/06 Q1022
09:00
V
19 °C 10 km+ - Var Var 2 kt METAR LFHP 100700Z AUTO VRB02KT CAVOK 19/07 Q1022

9. August 2022

Uhrzeit Code Wetter Temp. Sichtweite Wolkendecke Wind METAR/SPECI
21:00
V
24 °C 10 km+ - 040° 040° 3 kt METAR LFHP 091900Z AUTO 04003KT CAVOK 24/05 Q1022
20:30
V
26 °C 10 km+ - 040° 040° 5 kt METAR LFHP 091830Z AUTO 04005KT CAVOK 26/05 Q1022
20:00
V
27 °C 10 km+ - 060° 060° 8 kt METAR LFHP 091800Z AUTO 06008KT CAVOK 27/04 Q1021
19:30
V
28 °C 10 km+ - 090° 090° 6 kt METAR LFHP 091730Z AUTO 09006KT 060V140 CAVOK 28/05 Q1021
19:00
V
28 °C 10 km+ - 070° 070° 8 kt METAR LFHP 091700Z AUTO 07008KT CAVOK 28/04 Q1021
18:30
V
29 °C 10 km+ - 070° 070° 8 kt METAR LFHP 091630Z AUTO 07008KT 020V120 CAVOK 29/04 Q1021
18:00
V
29 °C 10 km+ - 060° 060° 9 kt METAR LFHP 091600Z AUTO 06009KT 020V100 CAVOK 29/04 Q1021
17:00
V
30 °C 10 km+ - 050° 050° 10 kt METAR LFHP 091500Z AUTO 05010KT 010V090 CAVOK 30/04 Q1021
Ältere Daten

Wir und Dritte verfolgen dein Internetverhalten auf unserer Website mit Cookies. Wenn du fortfährst, gehen wir davon aus, dass du mit unserer Cookie-Richtlinie einverstanden bist. Mehr erfahren